sensor_id;sensor_type;location;lat;lon;timestamp;P1;P2;P0
44312;PMS5003;38833;51.142;-0.974;2024-03-23T00:54:33;5;4;
44312;PMS5003;38833;51.142;-0.974;2024-03-23T00:57:06;3;2;
44312;PMS5003;38833;51.142;-0.974;2024-03-23T01:01:37;3;2;
44312;PMS5003;38833;51.142;-0.974;2024-03-23T01:04:10;4;4;
44312;PMS5003;38833;51.142;-0.974;2024-03-23T01:06:44;5;4;
44312;PMS5003;38833;51.142;-0.974;2024-03-23T01:09:17;5;3;
44312;PMS5003;38833;51.142;-0.974;2024-03-23T01:11:50;3;3;
44312;PMS5003;38833;51.142;-0.974;2024-03-23T01:14:24;4;4;
44312;PMS5003;38833;51.142;-0.974;2024-03-23T01:16:57;3;3;
44312;PMS5003;38833;51.142;-0.974;2024-03-23T01:19:31;4;4;
44312;PMS5003;38833;51.142;-0.974;2024-03-23T01:22:04;3;3;
44312;PMS5003;38833;51.142;-0.974;2024-03-23T01:24:37;4;4;
44312;PMS5003;38833;51.142;-0.974;2024-03-23T01:27:11;4;3;
44312;PMS5003;38833;51.142;-0.974;2024-03-23T01:29:44;7;7;
44312;PMS5003;38833;51.142;-0.974;2024-03-23T01:32:18;5;4;
44312;PMS5003;38833;51.142;-0.974;2024-03-23T01:34:51;5;5;
44312;PMS5003;38833;51.142;-0.974;2024-03-23T01:37:25;2;2;
44312;PMS5003;38833;51.142;-0.974;2024-03-23T01:39:58;5;5;
44312;PMS5003;38833;51.142;-0.974;2024-03-23T01:42:31;3;3;
44312;PMS5003;38833;51.142;-0.974;2024-03-23T01:45:05;4;4;
44312;PMS5003;38833;51.142;-0.974;2024-03-23T01:47:41;4;4;
44312;PMS5003;38833;51.142;-0.974;2024-03-23T01:50:15;6;5;
44312;PMS5003;38833;51.142;-0.974;2024-03-23T01:52:48;3;3;
44312;PMS5003;38833;51.142;-0.974;2024-03-23T01:55:22;5;5;
44312;PMS5003;38833;51.142;-0.974;2024-03-23T01:57:56;4;4;
44312;PMS5003;38833;51.142;-0.974;2024-03-23T02:00:30;4;2;
44312;PMS5003;38833;51.142;-0.974;2024-03-23T02:03:11;4;4;
44312;PMS5003;38833;51.142;-0.974;2024-03-23T02:05:55;5;5;
44312;PMS5003;38833;51.142;-0.974;2024-03-23T02:08:29;5;4;
44312;PMS5003;38833;51.142;-0.974;2024-03-23T02:11:03;5;5;
44312;PMS5003;38833;51.142;-0.974;2024-03-23T02:13:36;3;3;
44312;PMS5003;38833;51.142;-0.974;2024-03-23T02:16:09;6;3;
44312;PMS5003;38833;51.142;-0.974;2024-03-23T02:18:43;5;3;
44312;PMS5003;38833;51.142;-0.974;2024-03-23T02:21:16;5;4;
44312;PMS5003;38833;51.142;-0.974;2024-03-23T02:23:49;2;2;
44312;PMS5003;38833;51.142;-0.974;2024-03-23T02:26:23;4;3;
44312;PMS5003;38833;51.142;-0.974;2024-03-23T02:28:56;4;4;
44312;PMS5003;38833;51.142;-0.974;2024-03-23T02:31:29;4;4;
44312;PMS5003;38833;51.142;-0.974;2024-03-23T02:34:02;2;2;
44312;PMS5003;38833;51.142;-0.974;2024-03-23T02:36:36;3;3;
44312;PMS5003;38833;51.142;-0.974;2024-03-23T02:39:09;3;3;
44312;PMS5003;38833;51.142;-0.974;2024-03-23T02:41:42;3;3;
44312;PMS5003;38833;51.142;-0.974;2024-03-23T02:44:16;3;3;
44312;PMS5003;38833;51.142;-0.974;2024-03-23T02:46:49;5;4;
44312;PMS5003;38833;51.142;-0.974;2024-03-23T02:49:23;5;4;
44312;PMS5003;38833;51.142;-0.974;2024-03-23T02:51:56;7;4;
44312;PMS5003;38833;51.142;-0.974;2024-03-23T02:54:29;6;6;
44312;PMS5003;38833;51.142;-0.974;2024-03-23T02:57:02;5;5;
44312;PMS5003;38833;51.142;-0.974;2024-03-23T02:59:36;3;3;
44312;PMS5003;38833;51.142;-0.974;2024-03-23T03:02:09;4;4;
44312;PMS5003;38833;51.142;-0.974;2024-03-23T03:04:43;8;4;
44312;PMS5003;38833;51.142;-0.974;2024-03-23T03:07:17;3;3;
44312;PMS5003;38833;51.142;-0.974;2024-03-23T03:15:29;5;5;
44312;PMS5003;38833;51.142;-0.974;2024-03-23T03:18:02;4;3;
44312;PMS5003;38833;51.142;-0.974;2024-03-23T03:20:37;4;2;
44312;PMS5003;38833;51.142;-0.974;2024-03-23T03:23:11;4;4;
44312;PMS5003;38833;51.142;-0.974;2024-03-23T03:25:44;3;3;
44312;PMS5003;38833;51.142;-0.974;2024-03-23T03:28:17;3;3;
44312;PMS5003;38833;51.142;-0.974;2024-03-23T03:30:50;4;4;
44312;PMS5003;38833;51.142;-0.974;2024-03-23T03:33:24;5;3;
44312;PMS5003;38833;51.142;-0.974;2024-03-23T03:35:58;5;5;
44312;PMS5003;38833;51.142;-0.974;2024-03-23T03:38:31;8;5;
44312;PMS5003;38833;51.142;-0.974;2024-03-23T03:41:04;3;3;
44312;PMS5003;38833;51.142;-0.974;2024-03-23T03:43:37;4;4;
44312;PMS5003;38833;51.142;-0.974;2024-03-23T03:46:11;3;3;
44312;PMS5003;38833;51.142;-0.974;2024-03-23T03:48:44;4;4;
44312;PMS5003;38833;51.142;-0.974;2024-03-23T03:51:17;5;3;
44312;PMS5003;38833;51.142;-0.974;2024-03-23T03:53:50;6;3;
44312;PMS5003;38833;51.142;-0.974;2024-03-23T03:56:24;4;3;
44312;PMS5003;38833;51.142;-0.974;2024-03-23T03:58:57;4;4;
44312;PMS5003;38833;51.142;-0.974;2024-03-23T04:01:30;7;5;
44312;PMS5003;38833;51.142;-0.974;2024-03-23T04:04:04;3;3;
44312;PMS5003;38833;51.142;-0.974;2024-03-23T04:06:37;5;5;
44312;PMS5003;38833;51.142;-0.974;2024-03-23T04:09:11;6;4;
44312;PMS5003;38833;51.142;-0.974;2024-03-23T04:11:44;6;4;
44312;PMS5003;38833;51.142;-0.974;2024-03-23T04:14:17;3;3;
44312;PMS5003;38833;51.142;-0.974;2024-03-23T04:16:51;3;3;
44312;PMS5003;38833;51.142;-0.974;2024-03-23T04:19:24;5;4;
44312;PMS5003;38833;51.142;-0.974;2024-03-23T04:21:57;2;2;
44312;PMS5003;38833;51.142;-0.974;2024-03-23T04:24:31;6;6;
44312;PMS5003;38833;51.142;-0.974;2024-03-23T04:27:04;4;3;
44312;PMS5003;38833;51.142;-0.974;2024-03-23T04:29:37;6;4;
44312;PMS5003;38833;51.142;-0.974;2024-03-23T04:32:11;7;4;
44312;PMS5003;38833;51.142;-0.974;2024-03-23T04:34:44;5;5;
44312;PMS5003;38833;51.142;-0.974;2024-03-23T04:37:18;4;4;
44312;PMS5003;38833;51.142;-0.974;2024-03-23T04:39:51;3;3;
44312;PMS5003;38833;51.142;-0.974;2024-03-23T04:42:25;3;3;
44312;PMS5003;38833;51.142;-0.974;2024-03-23T04:44:58;4;4;
44312;PMS5003;38833;51.142;-0.974;2024-03-23T04:47:31;7;5;
44312;PMS5003;38833;51.142;-0.974;2024-03-23T04:50:05;5;5;
44312;PMS5003;38833;51.142;-0.974;2024-03-23T04:52:38;5;5;
44312;PMS5003;38833;51.142;-0.974;2024-03-23T04:55:11;6;5;
44312;PMS5003;38833;51.142;-0.974;2024-03-23T04:57:44;5;5;
44312;PMS5003;38833;51.142;-0.974;2024-03-23T05:00:18;5;5;
44312;PMS5003;38833;51.142;-0.974;2024-03-23T05:02:51;8;6;
44312;PMS5003;38833;51.142;-0.974;2024-03-23T05:05:24;6;6;
44312;PMS5003;38833;51.142;-0.974;2024-03-23T05:07:58;6;6;
44312;PMS5003;38833;51.142;-0.974;2024-03-23T05:10:31;7;7;
44312;PMS5003;38833;51.142;-0.974;2024-03-23T05:13:04;10;8;
44312;PMS5003;38833;51.142;-0.974;2024-03-23T05:15:37;7;7;
44312;PMS5003;38833;51.142;-0.974;2024-03-23T05:18:11;7;7;
44312;PMS5003;38833;51.142;-0.974;2024-03-23T05:20:44;9;7;
44312;PMS5003;38833;51.142;-0.974;2024-03-23T05:23:17;8;8;
44312;PMS5003;38833;51.142;-0.974;2024-03-23T05:25:50;8;8;
44312;PMS5003;38833;51.142;-0.974;2024-03-23T05:28:24;10;6;
44312;PMS5003;38833;51.142;-0.974;2024-03-23T05:30:57;6;6;
44312;PMS5003;38833;51.142;-0.974;2024-03-23T05:33:30;6;6;
44312;PMS5003;38833;51.142;-0.974;2024-03-23T05:36:04;10;8;
44312;PMS5003;38833;51.142;-0.974;2024-03-23T05:41:37;7;7;
44312;PMS5003;38833;51.142;-0.974;2024-03-23T05:44:10;6;6;
44312;PMS5003;38833;51.142;-0.974;2024-03-23T05:46:43;10;10;
44312;PMS5003;38833;51.142;-0.974;2024-03-23T05:49:16;8;8;
44312;PMS5003;38833;51.142;-0.974;2024-03-23T05:51:50;6;6;
44312;PMS5003;38833;51.142;-0.974;2024-03-23T05:54:23;6;6;
44312;PMS5003;38833;51.142;-0.974;2024-03-23T05:56:56;8;7;
44312;PMS5003;38833;51.142;-0.974;2024-03-23T05:59:29;5;5;
44312;PMS5003;38833;51.142;-0.974;2024-03-23T06:02:03;5;5;
44312;PMS5003;38833;51.142;-0.974;2024-03-23T06:04:36;5;5;
44312;PMS5003;38833;51.142;-0.974;2024-03-23T06:07:09;7;6;
44312;PMS5003;38833;51.142;-0.974;2024-03-23T06:09:43;6;5;
44312;PMS5003;38833;51.142;-0.974;2024-03-23T06:12:16;5;5;
44312;PMS5003;38833;51.142;-0.974;2024-03-23T06:14:49;4;4;
44312;PMS5003;38833;51.142;-0.974;2024-03-23T06:17:23;6;6;
44312;PMS5003;38833;51.142;-0.974;2024-03-23T06:19:56;6;6;
44312;PMS5003;38833;51.142;-0.974;2024-03-23T06:22:29;6;5;
44312;PMS5003;38833;51.142;-0.974;2024-03-23T06:25:03;5;4;
44312;PMS5003;38833;51.142;-0.974;2024-03-23T06:27:37;7;7;
44312;PMS5003;38833;51.142;-0.974;2024-03-23T06:30:11;6;5;
44312;PMS5003;38833;51.142;-0.974;2024-03-23T06:32:45;5;5;
44312;PMS5003;38833;51.142;-0.974;2024-03-23T06:35:18;6;6;
44312;PMS5003;38833;51.142;-0.974;2024-03-23T06:37:51;7;4;
44312;PMS5003;38833;51.142;-0.974;2024-03-23T06:40:25;6;5;
44312;PMS5003;38833;51.142;-0.974;2024-03-23T06:42:58;5;4;
44312;PMS5003;38833;51.142;-0.974;2024-03-23T06:45:32;4;4;
44312;PMS5003;38833;51.142;-0.974;2024-03-23T06:48:05;5;5;
44312;PMS5003;38833;51.142;-0.974;2024-03-23T06:50:39;6;4;
44312;PMS5003;38833;51.142;-0.974;2024-03-23T06:53:12;5;4;
44312;PMS5003;38833;51.142;-0.974;2024-03-23T06:55:49;7;4;
44312;PMS5003;38833;51.142;-0.974;2024-03-23T06:58:24;5;5;
44312;PMS5003;38833;51.142;-0.974;2024-03-23T07:00:57;5;5;
44312;PMS5003;38833;51.142;-0.974;2024-03-23T07:03:30;4;4;
44312;PMS5003;38833;51.142;-0.974;2024-03-23T07:06:04;4;4;
44312;PMS5003;38833;51.142;-0.974;2024-03-23T07:08:37;8;5;
44312;PMS5003;38833;51.142;-0.974;2024-03-23T07:11:10;7;4;
44312;PMS5003;38833;51.142;-0.974;2024-03-23T07:13:43;4;4;
44312;PMS5003;38833;51.142;-0.974;2024-03-23T07:16:17;5;5;
44312;PMS5003;38833;51.142;-0.974;2024-03-23T07:18:50;5;4;
44312;PMS5003;38833;51.142;-0.974;2024-03-23T07:21:24;5;5;
44312;PMS5003;38833;51.142;-0.974;2024-03-23T07:23:57;6;4;
44312;PMS5003;38833;51.142;-0.974;2024-03-23T07:26:30;5;5;
44312;PMS5003;38833;51.142;-0.974;2024-03-23T07:29:04;5;5;
44312;PMS5003;38833;51.142;-0.974;2024-03-23T07:31:37;4;4;
44312;PMS5003;38833;51.142;-0.974;2024-03-23T07:34:11;6;6;
44312;PMS5003;38833;51.142;-0.974;2024-03-23T07:36:44;7;4;
44312;PMS5003;38833;51.142;-0.974;2024-03-23T07:39:17;4;4;
44312;PMS5003;38833;51.142;-0.974;2024-03-23T07:41:50;5;4;
44312;PMS5003;38833;51.142;-0.974;2024-03-23T07:44:24;5;5;
44312;PMS5003;38833;51.142;-0.974;2024-03-23T07:46:58;6;5;
44312;PMS5003;38833;51.142;-0.974;2024-03-23T07:50:23;5;5;
44312;PMS5003;38833;51.142;-0.974;2024-03-23T07:52:56;5;5;
44312;PMS5003;38833;51.142;-0.974;2024-03-23T07:55:29;5;5;
44312;PMS5003;38833;51.142;-0.974;2024-03-23T07:58:03;6;6;
44312;PMS5003;38833;51.142;-0.974;2024-03-23T08:00:36;6;6;
44312;PMS5003;38833;51.142;-0.974;2024-03-23T08:03:09;6;6;
44312;PMS5003;38833;51.142;-0.974;2024-03-23T08:05:43;5;5;
44312;PMS5003;38833;51.142;-0.974;2024-03-23T08:08:16;6;6;
44312;PMS5003;38833;51.142;-0.974;2024-03-23T08:10:49;6;6;
44312;PMS5003;38833;51.142;-0.974;2024-03-23T08:13:23;6;6;
44312;PMS5003;38833;51.142;-0.974;2024-03-23T08:15:57;5;5;
44312;PMS5003;38833;51.142;-0.974;2024-03-23T08:18:30;8;7;
44312;PMS5003;38833;51.142;-0.974;2024-03-23T08:21:04;8;7;
44312;PMS5003;38833;51.142;-0.974;2024-03-23T08:23:38;18;6;
44312;PMS5003;38833;51.142;-0.974;2024-03-23T08:26:12;7;6;
44312;PMS5003;38833;51.142;-0.974;2024-03-23T08:28:47;7;5;
44312;PMS5003;38833;51.142;-0.974;2024-03-23T08:31:20;8;6;
44312;PMS5003;38833;51.142;-0.974;2024-03-23T08:33:53;9;7;
44312;PMS5003;38833;51.142;-0.974;2024-03-23T08:36:27;7;7;
44312;PMS5003;38833;51.142;-0.974;2024-03-23T08:39:00;11;9;
44312;PMS5003;38833;51.142;-0.974;2024-03-23T08:41:33;7;7;
44312;PMS5003;38833;51.142;-0.974;2024-03-23T08:44:06;6;6;
44312;PMS5003;38833;51.142;-0.974;2024-03-23T08:46:40;7;7;
44312;PMS5003;38833;51.142;-0.974;2024-03-23T08:49:13;6;6;
44312;PMS5003;38833;51.142;-0.974;2024-03-23T08:51:46;7;7;
44312;PMS5003;38833;51.142;-0.974;2024-03-23T08:54:19;8;7;
44312;PMS5003;38833;51.142;-0.974;2024-03-23T08:56:53;8;5;
44312;PMS5003;38833;51.142;-0.974;2024-03-23T08:59:26;8;7;
44312;PMS5003;38833;51.142;-0.974;2024-03-23T09:01:59;8;6;
44312;PMS5003;38833;51.142;-0.974;2024-03-23T09:04:33;6;6;
44312;PMS5003;38833;51.142;-0.974;2024-03-23T09:07:06;7;7;
44312;PMS5003;38833;51.142;-0.974;2024-03-23T09:09:39;7;7;
44312;PMS5003;38833;51.142;-0.974;2024-03-23T09:12:13;8;7;
44312;PMS5003;38833;51.142;-0.974;2024-03-23T09:14:46;5;5;
44312;PMS5003;38833;51.142;-0.974;2024-03-23T09:17:19;5;5;
44312;PMS5003;38833;51.142;-0.974;2024-03-23T09:19:52;13;6;
44312;PMS5003;38833;51.142;-0.974;2024-03-23T09:22:26;5;5;
44312;PMS5003;38833;51.142;-0.974;2024-03-23T09:25:00;9;9;
44312;PMS5003;38833;51.142;-0.974;2024-03-23T09:27:33;8;6;
44312;PMS5003;38833;51.142;-0.974;2024-03-23T09:30:07;5;4;
44312;PMS5003;38833;51.142;-0.974;2024-03-23T09:32:41;5;5;
44312;PMS5003;38833;51.142;-0.974;2024-03-23T09:35:16;11;8;
44312;PMS5003;38833;51.142;-0.974;2024-03-23T09:37:49;6;6;
44312;PMS5003;38833;51.142;-0.974;2024-03-23T09:40:23;8;7;
44312;PMS5003;38833;51.142;-0.974;2024-03-23T09:42:56;7;5;
44312;PMS5003;38833;51.142;-0.974;2024-03-23T09:45:30;6;6;
44312;PMS5003;38833;51.142;-0.974;2024-03-23T09:48:04;5;5;
44312;PMS5003;38833;51.142;-0.974;2024-03-23T09:50:41;7;5;
44312;PMS5003;38833;51.142;-0.974;2024-03-23T09:53:15;7;6;
44312;PMS5003;38833;51.142;-0.974;2024-03-23T09:55:48;8;7;
44312;PMS5003;38833;51.142;-0.974;2024-03-23T10:00:54;4;4;
44312;PMS5003;38833;51.142;-0.974;2024-03-23T10:03:28;6;6;
44312;PMS5003;38833;51.142;-0.974;2024-03-23T10:06:01;7;7;
44312;PMS5003;38833;51.142;-0.974;2024-03-23T10:11:39;6;6;
44312;PMS5003;38833;51.142;-0.974;2024-03-23T10:14:12;7;6;
44312;PMS5003;38833;51.142;-0.974;2024-03-23T10:17:11;7;6;
44312;PMS5003;38833;51.142;-0.974;2024-03-23T10:19:45;6;6;
44312;PMS5003;38833;51.142;-0.974;2024-03-23T10:22:20;6;6;
44312;PMS5003;38833;51.142;-0.974;2024-03-23T10:24:55;9;7;
44312;PMS5003;38833;51.142;-0.974;2024-03-23T10:27:41;7;5;
44312;PMS5003;38833;51.142;-0.974;2024-03-23T10:30:15;9;7;
44312;PMS5003;38833;51.142;-0.974;2024-03-23T10:32:49;6;6;
44312;PMS5003;38833;51.142;-0.974;2024-03-23T10:35:22;7;7;
44312;PMS5003;38833;51.142;-0.974;2024-03-23T10:37:56;7;7;
44312;PMS5003;38833;51.142;-0.974;2024-03-23T10:40:29;5;5;
44312;PMS5003;38833;51.142;-0.974;2024-03-23T10:43:03;8;7;
44312;PMS5003;38833;51.142;-0.974;2024-03-23T10:45:36;6;5;
44312;PMS5003;38833;51.142;-0.974;2024-03-23T10:48:10;6;5;
44312;PMS5003;38833;51.142;-0.974;2024-03-23T10:50:43;6;5;
44312;PMS5003;38833;51.142;-0.974;2024-03-23T10:53:17;8;6;
44312;PMS5003;38833;51.142;-0.974;2024-03-23T10:55:51;5;4;
44312;PMS5003;38833;51.142;-0.974;2024-03-23T10:58:27;4;4;
44312;PMS5003;38833;51.142;-0.974;2024-03-23T11:01:03;5;5;
44312;PMS5003;38833;51.142;-0.974;2024-03-23T11:03:38;7;5;
44312;PMS5003;38833;51.142;-0.974;2024-03-23T11:06:33;8;5;
44312;PMS5003;38833;51.142;-0.974;2024-03-23T11:09:27;5;5;
44312;PMS5003;38833;51.142;-0.974;2024-03-23T11:12:27;6;5;
44312;PMS5003;38833;51.142;-0.974;2024-03-23T11:15:02;7;4;
44312;PMS5003;38833;51.142;-0.974;2024-03-23T11:17:37;5;5;
44312;PMS5003;38833;51.142;-0.974;2024-03-23T11:20:11;6;6;
44312;PMS5003;38833;51.142;-0.974;2024-03-23T11:22:44;5;4;
44312;PMS5003;38833;51.142;-0.974;2024-03-23T11:25:18;5;4;
44312;PMS5003;38833;51.142;-0.974;2024-03-23T11:27:53;4;4;
44312;PMS5003;38833;51.142;-0.974;2024-03-23T11:30:28;6;5;
44312;PMS5003;38833;51.142;-0.974;2024-03-23T11:33:01;5;5;
44312;PMS5003;38833;51.142;-0.974;2024-03-23T11:35:37;5;5;
44312;PMS5003;38833;51.142;-0.974;2024-03-23T11:38:11;3;3;
44312;PMS5003;38833;51.142;-0.974;2024-03-23T11:40:46;4;4;
44312;PMS5003;38833;51.142;-0.974;2024-03-23T11:43:20;3;3;
44312;PMS5003;38833;51.142;-0.974;2024-03-23T11:45:53;5;5;
44312;PMS5003;38833;51.142;-0.974;2024-03-23T11:48:27;5;4;
44312;PMS5003;38833;51.142;-0.974;2024-03-23T11:51:00;5;5;
44312;PMS5003;38833;51.142;-0.974;2024-03-23T11:53:33;5;5;
44312;PMS5003;38833;51.142;-0.974;2024-03-23T11:56:07;5;5;
44312;PMS5003;38833;51.142;-0.974;2024-03-23T11:58:40;4;4;
44312;PMS5003;38833;51.142;-0.974;2024-03-23T12:01:13;5;4;
44312;PMS5003;38833;51.142;-0.974;2024-03-23T12:03:46;5;4;
44312;PMS5003;38833;51.142;-0.974;2024-03-23T12:06:19;6;5;
44312;PMS5003;38833;51.142;-0.974;2024-03-23T12:08:53;4;4;
44312;PMS5003;38833;51.142;-0.974;2024-03-23T12:11:38;6;4;
44312;PMS5003;38833;51.142;-0.974;2024-03-23T12:14:14;4;4;
44312;PMS5003;38833;51.142;-0.974;2024-03-23T12:16:47;6;3;
44312;PMS5003;38833;51.142;-0.974;2024-03-23T12:19:20;3;3;
44312;PMS5003;38833;51.142;-0.974;2024-03-23T12:21:54;5;5;
44312;PMS5003;38833;51.142;-0.974;2024-03-23T12:24:27;2;2;
44312;PMS5003;38833;51.142;-0.974;2024-03-23T12:27:02;4;3;
44312;PMS5003;38833;51.142;-0.974;2024-03-23T12:29:36;6;4;
44312;PMS5003;38833;51.142;-0.974;2024-03-23T12:32:09;6;4;
44312;PMS5003;38833;51.142;-0.974;2024-03-23T12:34:42;6;4;
44312;PMS5003;38833;51.142;-0.974;2024-03-23T12:37:16;3;3;
44312;PMS5003;38833;51.142;-0.974;2024-03-23T12:39:49;4;4;
44312;PMS5003;38833;51.142;-0.974;2024-03-23T12:42:22;6;5;
44312;PMS5003;38833;51.142;-0.974;2024-03-23T12:44:56;3;3;
44312;PMS5003;38833;51.142;-0.974;2024-03-23T12:47:30;4;3;
44312;PMS5003;38833;51.142;-0.974;2024-03-23T12:50:03;5;4;
44312;PMS5003;38833;51.142;-0.974;2024-03-23T12:52:37;4;4;
44312;PMS5003;38833;51.142;-0.974;2024-03-23T12:55:11;2;2;
44312;PMS5003;38833;51.142;-0.974;2024-03-23T12:57:44;6;4;
44312;PMS5003;38833;51.142;-0.974;2024-03-23T13:00:18;4;3;
44312;PMS5003;38833;51.142;-0.974;2024-03-23T13:02:51;3;3;
44312;PMS5003;38833;51.142;-0.974;2024-03-23T13:05:24;4;4;
44312;PMS5003;38833;51.142;-0.974;2024-03-23T13:07:58;3;3;
44312;PMS5003;38833;51.142;-0.974;2024-03-23T13:10:31;2;2;
44312;PMS5003;38833;51.142;-0.974;2024-03-23T13:13:04;4;4;
44312;PMS5003;38833;51.142;-0.974;2024-03-23T13:15:38;5;4;
44312;PMS5003;38833;51.142;-0.974;2024-03-23T13:18:11;3;3;
44312;PMS5003;38833;51.142;-0.974;2024-03-23T13:20:45;2;2;
44312;PMS5003;38833;51.142;-0.974;2024-03-23T13:23:18;3;3;
44312;PMS5003;38833;51.142;-0.974;2024-03-23T13:25:52;4;4;
44312;PMS5003;38833;51.142;-0.974;2024-03-23T13:28:26;4;4;
44312;PMS5003;38833;51.142;-0.974;2024-03-23T13:30:59;4;2;
44312;PMS5003;38833;51.142;-0.974;2024-03-23T13:33:32;3;3;
44312;PMS5003;38833;51.142;-0.974;2024-03-23T13:36:06;4;3;
44312;PMS5003;38833;51.142;-0.974;2024-03-23T13:38:40;5;5;
44312;PMS5003;38833;51.142;-0.974;2024-03-23T13:41:13;4;4;
44312;PMS5003;38833;51.142;-0.974;2024-03-23T13:43:46;2;2;
44312;PMS5003;38833;51.142;-0.974;2024-03-23T13:46:20;4;4;
44312;PMS5003;38833;51.142;-0.974;2024-03-23T13:48:53;3;3;
44312;PMS5003;38833;51.142;-0.974;2024-03-23T13:51:27;4;4;
44312;PMS5003;38833;51.142;-0.974;2024-03-23T13:54:01;3;3;
44312;PMS5003;38833;51.142;-0.974;2024-03-23T13:56:34;5;4;
44312;PMS5003;38833;51.142;-0.974;2024-03-23T13:59:07;3;3;
44312;PMS5003;38833;51.142;-0.974;2024-03-23T14:01:40;2;2;
44312;PMS5003;38833;51.142;-0.974;2024-03-23T14:04:14;3;3;
44312;PMS5003;38833;51.142;-0.974;2024-03-23T14:06:47;4;4;
44312;PMS5003;38833;51.142;-0.974;2024-03-23T14:09:20;3;3;
44312;PMS5003;38833;51.142;-0.974;2024-03-23T14:11:54;4;4;
44312;PMS5003;38833;51.142;-0.974;2024-03-23T14:14:27;5;5;
44312;PMS5003;38833;51.142;-0.974;2024-03-23T14:17:01;4;4;
44312;PMS5003;38833;51.142;-0.974;2024-03-23T14:19:34;6;6;
44312;PMS5003;38833;51.142;-0.974;2024-03-23T14:22:08;5;5;
44312;PMS5003;38833;51.142;-0.974;2024-03-23T14:24:41;4;4;
44312;PMS5003;38833;51.142;-0.974;2024-03-23T14:27:14;4;4;
44312;PMS5003;38833;51.142;-0.974;2024-03-23T14:29:47;4;4;
44312;PMS5003;38833;51.142;-0.974;2024-03-23T14:32:21;5;5;
44312;PMS5003;38833;51.142;-0.974;2024-03-23T14:34:55;6;6;
44312;PMS5003;38833;51.142;-0.974;2024-03-23T14:37:28;7;7;
44312;PMS5003;38833;51.142;-0.974;2024-03-23T14:40:02;6;5;
44312;PMS5003;38833;51.142;-0.974;2024-03-23T14:42:36;9;9;
44312;PMS5003;38833;51.142;-0.974;2024-03-23T14:45:09;9;7;
44312;PMS5003;38833;51.142;-0.974;2024-03-23T14:47:42;10;10;
44312;PMS5003;38833;51.142;-0.974;2024-03-23T14:50:16;8;8;
44312;PMS5003;38833;51.142;-0.974;2024-03-23T14:52:50;11;11;
44312;PMS5003;38833;51.142;-0.974;2024-03-23T14:55:23;11;10;
44312;PMS5003;38833;51.142;-0.974;2024-03-23T14:57:56;13;12;
44312;PMS5003;38833;51.142;-0.974;2024-03-23T15:00:30;13;13;
44312;PMS5003;38833;51.142;-0.974;2024-03-23T15:03:03;14;14;
44312;PMS5003;38833;51.142;-0.974;2024-03-23T15:05:36;12;12;
44312;PMS5003;38833;51.142;-0.974;2024-03-23T15:08:10;14;14;
44312;PMS5003;38833;51.142;-0.974;2024-03-23T15:10:43;17;13;
44312;PMS5003;38833;51.142;-0.974;2024-03-23T15:13:16;13;13;
44312;PMS5003;38833;51.142;-0.974;2024-03-23T16:49:16;7;6;
44312;PMS5003;38833;51.142;-0.974;2024-03-23T16:51:50;5;5;
44312;PMS5003;38833;51.142;-0.974;2024-03-23T16:54:24;5;5;
44312;PMS5003;38833;51.142;-0.974;2024-03-23T16:56:57;4;4;
44312;PMS5003;38833;51.142;-0.974;2024-03-23T16:59:30;6;6;
44312;PMS5003;38833;51.142;-0.974;2024-03-23T17:02:04;4;4;
44312;PMS5003;38833;51.142;-0.974;2024-03-23T17:04:37;6;5;
44312;PMS5003;38833;51.142;-0.974;2024-03-23T17:07:11;7;5;
44312;PMS5003;38833;51.142;-0.974;2024-03-23T17:09:46;3;3;
44312;PMS5003;38833;51.142;-0.974;2024-03-23T17:12:20;4;4;
44312;PMS5003;38833;51.142;-0.974;2024-03-23T17:14:53;3;3;
44312;PMS5003;38833;51.142;-0.974;2024-03-23T17:17:26;3;3;
44312;PMS5003;38833;51.142;-0.974;2024-03-23T17:20:00;3;3;
44312;PMS5003;38833;51.142;-0.974;2024-03-23T17:22:33;3;3;
44312;PMS5003;38833;51.142;-0.974;2024-03-23T17:25:07;3;3;
44312;PMS5003;38833;51.142;-0.974;2024-03-23T17:27:40;2;2;
44312;PMS5003;38833;51.142;-0.974;2024-03-23T17:30:14;3;3;
44312;PMS5003;38833;51.142;-0.974;2024-03-23T17:32:47;4;4;
44312;PMS5003;38833;51.142;-0.974;2024-03-23T17:35:21;4;4;
44312;PMS5003;38833;51.142;-0.974;2024-03-23T17:37:54;6;3;
44312;PMS5003;38833;51.142;-0.974;2024-03-23T17:40:28;3;2;
44312;PMS5003;38833;51.142;-0.974;2024-03-23T17:43:01;4;3;
44312;PMS5003;38833;51.142;-0.974;2024-03-23T17:45:35;2;2;
44312;PMS5003;38833;51.142;-0.974;2024-03-23T17:48:08;4;4;
44312;PMS5003;38833;51.142;-0.974;2024-03-23T17:50:41;5;3;
44312;PMS5003;38833;51.142;-0.974;2024-03-23T17:53:15;2;2;
44312;PMS5003;38833;51.142;-0.974;2024-03-23T17:55:48;2;2;
44312;PMS5003;38833;51.142;-0.974;2024-03-23T17:58:22;3;3;
44312;PMS5003;38833;51.142;-0.974;2024-03-23T18:00:55;4;4;
44312;PMS5003;38833;51.142;-0.974;2024-03-23T18:03:28;5;3;
44312;PMS5003;38833;51.142;-0.974;2024-03-23T18:06:01;4;3;
44312;PMS5003;38833;51.142;-0.974;2024-03-23T18:08:35;5;3;
44312;PMS5003;38833;51.142;-0.974;2024-03-23T18:11:09;3;3;
44312;PMS5003;38833;51.142;-0.974;2024-03-23T18:13:42;2;2;
44312;PMS5003;38833;51.142;-0.974;2024-03-23T18:16:15;4;3;
44312;PMS5003;38833;51.142;-0.974;2024-03-23T18:18:49;4;4;
44312;PMS5003;38833;51.142;-0.974;2024-03-23T18:21:22;4;4;
44312;PMS5003;38833;51.142;-0.974;2024-03-23T18:23:55;3;3;
44312;PMS5003;38833;51.142;-0.974;2024-03-23T18:26:28;3;3;
44312;PMS5003;38833;51.142;-0.974;2024-03-23T18:29:02;3;3;
44312;PMS5003;38833;51.142;-0.974;2024-03-23T18:31:36;5;5;
44312;PMS5003;38833;51.142;-0.974;2024-03-23T18:34:09;4;4;
44312;PMS5003;38833;51.142;-0.974;2024-03-23T18:36:42;3;3;
44312;PMS5003;38833;51.142;-0.974;2024-03-23T18:39:16;4;4;
44312;PMS5003;38833;51.142;-0.974;2024-03-23T18:41:49;4;4;
44312;PMS5003;38833;51.142;-0.974;2024-03-23T18:44:22;4;4;
44312;PMS5003;38833;51.142;-0.974;2024-03-23T18:46:56;3;3;
44312;PMS5003;38833;51.142;-0.974;2024-03-23T18:49:29;5;5;
44312;PMS5003;38833;51.142;-0.974;2024-03-23T18:52:03;4;4;
44312;PMS5003;38833;51.142;-0.974;2024-03-23T18:54:36;4;4;
44312;PMS5003;38833;51.142;-0.974;2024-03-23T18:57:10;3;3;
44312;PMS5003;38833;51.142;-0.974;2024-03-23T18:59:43;4;2;
44312;PMS5003;38833;51.142;-0.974;2024-03-23T19:02:17;4;4;
44312;PMS5003;38833;51.142;-0.974;2024-03-23T19:04:50;3;3;
44312;PMS5003;38833;51.142;-0.974;2024-03-23T19:07:23;3;3;
44312;PMS5003;38833;51.142;-0.974;2024-03-23T19:09:57;7;5;
44312;PMS5003;38833;51.142;-0.974;2024-03-23T19:12:30;10;8;
44312;PMS5003;38833;51.142;-0.974;2024-03-23T19:15:06;5;5;
44312;PMS5003;38833;51.142;-0.974;2024-03-23T19:17:40;4;4;
44312;PMS5003;38833;51.142;-0.974;2024-03-23T19:20:14;4;4;
44312;PMS5003;38833;51.142;-0.974;2024-03-23T19:22:47;2;2;
44312;PMS5003;38833;51.142;-0.974;2024-03-23T19:25:20;4;4;
44312;PMS5003;38833;51.142;-0.974;2024-03-23T19:27:54;3;2;
44312;PMS5003;38833;51.142;-0.974;2024-03-23T19:30:29;11;11;
44312;PMS5003;38833;51.142;-0.974;2024-03-23T19:33:03;22;21;
44312;PMS5003;38833;51.142;-0.974;2024-03-23T19:35:37;9;9;
44312;PMS5003;38833;51.142;-0.974;2024-03-23T19:38:10;6;6;
44312;PMS5003;38833;51.142;-0.974;2024-03-23T19:40:45;4;4;
44312;PMS5003;38833;51.142;-0.974;2024-03-23T19:43:24;4;4;
44312;PMS5003;38833;51.142;-0.974;2024-03-23T19:46:01;4;4;
44312;PMS5003;38833;51.142;-0.974;2024-03-23T19:48:35;4;4;
44312;PMS5003;38833;51.142;-0.974;2024-03-23T19:51:08;3;3;
44312;PMS5003;38833;51.142;-0.974;2024-03-23T19:53:42;2;2;
44312;PMS5003;38833;51.142;-0.974;2024-03-23T19:56:15;5;5;
44312;PMS5003;38833;51.142;-0.974;2024-03-23T19:58:48;3;3;
44312;PMS5003;38833;51.142;-0.974;2024-03-23T20:01:22;3;3;